Terminal Aerodrome Forecast
Issued by NWS Huntsville, AL

Home | Current Version | Previous Version | Text Only | Print | Product List | Glossary On
Versions: 1 2 3 4 5 6 7 8 9 10 11 12 13 14 15 16 17 18 19 20 21 22 23 24 25 26 27
889
FTUS44 KHUN 091733
TAFMSL
TAF
KMSL 091733Z 0918/1018 31010KT P6SM -SHSN SCT025 BKN040
      TEMPO 0918/0922 3SM -SHSN BR BKN025
     FM100100 30009KT P6SM OVC025
     FM100600 30006KT P6SM SCT030
     FM101500 31010G16KT P6SM FEW030=

USA.gov is the U.S. government's official web portal to all federal, state and local government web resources and services.